Time;durP1;ratioP1;P1;durP2;ratioP2;P2;SDS_P1;SDS_P2;PMS_P1;PMS_P2;Temp;Humidity;BMP_temperature;BMP_pressure;BME280_temperature;BME280_humidity;BME280_pressure;Samples;Min_cycle;Max_cycle;Signal;HPM_P1;HPM_P2
2023/06/22 00:01:33;;;;;;;11.50;6.30;;;;;;;18.38;88.62;99907.05;109650;1254;72222;-65
2023/06/22 00:04:22;;;;;;;11.30;6.50;;;;;;;18.34;88.81;99908.79;109349;1254;66635;-65
2023/06/22 00:07:08;;;;;;;13.40;6.90;;;;;;;18.30;89.12;99914.20;109475;1253;71120;-65
2023/06/22 00:09:55;;;;;;;13.20;6.60;;;;;;;18.27;89.18;99911.77;109633;1253;57053;-64
2023/06/22 00:12:41;;;;;;;13.30;6.70;;;;;;;18.22;89.45;99911.63;109516;1253;58930;-65
2023/06/22 00:15:27;;;;;;;13.20;7.50;;;;;;;18.18;89.53;99908.39;109333;1253;72275;-66
2023/06/22 00:18:15;;;;;;;12.60;6.60;;;;;;;18.14;89.91;99906.93;109302;1253;66529;-65
2023/06/22 00:21:02;;;;;;;13.70;6.60;;;;;;;18.11;89.94;99916.55;109281;1254;70317;-65
2023/06/22 00:23:48;;;;;;;12.90;6.80;;;;;;;18.08;89.96;99919.66;109478;1253;59502;-64
2023/06/22 00:26:34;;;;;;;12.70;6.70;;;;;;;18.04;90.39;99927.45;109278;1253;58929;-65
2023/06/22 00:29:24;;;;;;;11.70;6.60;;;;;;;17.99;90.58;99923.75;109425;1253;71205;-65
2023/06/22 00:32:17;;;;;;;14.10;7.10;;;;;;;17.96;90.72;99928.11;109458;1253;68444;-69
2023/06/22 00:35:07;;;;;;;12.70;6.60;;;;;;;17.93;91.06;99933.86;109221;1253;71073;-64
2023/06/22 00:38:00;;;;;;;11.50;6.20;;;;;;;17.90;91.21;99934.48;109413;1253;56893;-64
2023/06/22 00:40:46;;;;;;;12.70;6.60;;;;;;;17.86;91.05;99939.36;109506;1252;60173;-65
2023/06/22 00:43:33;;;;;;;13.90;7.00;;;;;;;17.81;91.63;99937.77;109404;1253;72228;-64
2023/06/22 00:46:22;;;;;;;12.30;7.00;;;;;;;17.77;92.06;99939.33;109227;1253;67776;-64
2023/06/22 00:49:10;;;;;;;12.80;6.80;;;;;;;17.74;92.37;99936.40;109429;1253;72369;-64
2023/06/22 00:51:58;;;;;;;12.70;6.00;;;;;;;17.74;92.19;99936.06;109543;1253;57992;-65
2023/06/22 00:54:48;;;;;;;11.50;6.30;;;;;;;17.71;92.37;99941.92;109288;1253;58329;-64
2023/06/22 00:57:37;;;;;;;13.90;5.70;;;;;;;17.65;92.83;99948.48;109435;1253;72216;-63
2023/06/22 01:00:24;;;;;;;11.70;6.50;;;;;;;17.59;93.15;99952.55;109170;1254;67013;-64
2023/06/22 01:03:12;;;;;;;14.80;5.90;;;;;;;17.55;93.69;99953.55;109182;1254;72733;-64
2023/06/22 01:06:09;;;;;;;12.60;6.30;;;;;;;17.50;94.00;99955.00;109186;1254;60351;-64
2023/06/22 01:09:19;;;;;;;11.60;6.30;;;;;;;17.48;93.78;99958.97;109261;1256;61224;-64
2023/06/22 01:12:08;;;;;;;11.50;6.00;;;;;;;17.44;93.80;99955.06;109327;1253;72144;-64
2023/06/22 01:15:08;;;;;;;12.80;6.30;;;;;;;17.42;94.55;99945.98;109370;1253;68702;-63
2023/06/22 01:17:56;;;;;;;13.50;6.90;;;;;;;17.39;94.69;99947.02;109448;1253;72601;-64
2023/06/22 01:20:44;;;;;;;14.30;7.20;;;;;;;17.34;94.82;99950.05;109419;1253;57854;-64
2023/06/22 01:24:10;;;;;;;13.80;7.20;;;;;;;17.30;95.16;99945.48;108500;1253;1002832;-64
2023/06/22 01:27:46;;;;;;;13.20;6.30;;;;;;;17.25;95.38;99948.55;109420;1253;72341;-64
2023/06/22 01:30:38;;;;;;;14.00;7.10;;;;;;;17.20;95.98;99956.58;109481;1253;67824;-64
2023/06/22 01:33:25;;;;;;;12.80;6.40;;;;;;;17.17;95.86;99957.95;109264;1253;71289;-63
2023/06/22 01:36:14;;;;;;;13.60;6.70;;;;;;;17.15;96.40;99960.15;109226;1253;58123;-62
2023/06/22 01:39:03;;;;;;;13.80;6.30;;;;;;;17.12;96.66;99961.39;108502;1253;1002207;-65
2023/06/22 01:41:50;;;;;;;12.80;7.30;;;;;;;17.08;97.17;99957.48;109239;1253;72734;-64
2023/06/22 01:44:38;;;;;;;13.30;6.70;;;;;;;17.04;96.82;99952.04;109282;1253;67670;-65
2023/06/22 01:47:27;;;;;;;16.40;6.60;;;;;;;17.00;97.54;99957.30;109228;1254;71445;-65
2023/06/22 01:50:15;;;;;;;12.70;6.60;;;;;;;16.97;97.74;99961.15;109385;1253;59289;-66
2023/06/22 01:53:02;;;;;;;14.00;6.90;;;;;;;16.95;98.20;99967.84;108988;1257;60322;-65
2023/06/22 01:55:49;;;;;;;14.80;7.00;;;;;;;16.95;98.36;99967.84;108961;1257;72136;-66
2023/06/22 01:58:53;;;;;;;14.20;7.20;;;;;;;16.94;98.31;99969.58;109159;1257;66113;-64
2023/06/22 02:01:47;;;;;;;15.50;6.90;;;;;;;16.92;98.42;99973.36;109082;1257;73459;-62
2023/06/22 02:04:41;;;;;;;13.10;7.30;;;;;;;16.89;98.62;99974.38;109132;1257;59328;-61
2023/06/22 02:07:34;;;;;;;12.50;6.80;;;;;;;16.89;98.82;99972.81;109006;1257;58922;-64
2023/06/22 02:10:23;;;;;;;16.00;7.30;;;;;;;16.90;99.13;99970.44;109077;1257;72090;-67
2023/06/22 02:13:12;;;;;;;14.30;7.70;;;;;;;16.91;98.90;99965.40;109085;1257;66481;-66
2023/06/22 02:16:00;;;;;;;13.40;6.60;;;;;;;16.90;99.16;99964.41;109114;1257;71730;-64
2023/06/22 02:18:51;;;;;;;13.00;7.60;;;;;;;16.87;99.39;99966.20;108936;1257;59845;-64
2023/06/22 02:21:38;;;;;;;16.00;7.70;;;;;;;16.84;99.39;99969.52;108951;1259;60436;-61
2023/06/22 02:24:25;;;;;;;14.40;8.10;;;;;;;16.81;99.72;99972.67;109293;1253;72493;-64
2023/06/22 02:27:13;;;;;;;16.90;9.40;;;;;;;16.80;100.00;99975.30;109412;1253;69342;-64
2023/06/22 02:30:01;;;;;;;15.30;8.70;;;;;;;16.81;100.00;99982.95;109216;1253;72710;-63
2023/06/22 02:32:47;;;;;;;16.00;8.70;;;;;;;16.81;100.00;99983.95;109372;1253;58223;-64
2023/06/22 02:35:35;;;;;;;19.40;9.10;;;;;;;16.78;100.00;99985.92;109411;1253;59148;-64
2023/06/22 02:38:24;;;;;;;19.20;9.90;;;;;;;16.80;100.00;99993.02;109435;1253;71969;-64
2023/06/22 02:41:13;;;;;;;16.90;8.90;;;;;;;16.79;100.00;99994.58;109206;1253;67712;-67
2023/06/22 02:43:59;;;;;;;16.30;9.10;;;;;;;16.79;100.00;100002.41;109399;1253;72576;-64
2023/06/22 02:46:47;;;;;;;17.90;9.50;;;;;;;16.81;100.00;100005.17;109258;1253;58055;-64
2023/06/22 02:49:34;;;;;;;16.30;8.60;;;;;;;16.82;100.00;100011.97;109242;1253;60283;-64
2023/06/22 02:52:21;;;;;;;15.70;8.30;;;;;;;16.85;100.00;100021.05;109412;1252;72298;-64
2023/06/22 02:55:08;;;;;;;14.30;8.90;;;;;;;16.89;100.00;100024.39;109418;1253;66655;-64
2023/06/22 02:57:55;;;;;;;17.40;8.90;;;;;;;16.95;100.00;100029.08;109257;1257;72603;-64
2023/06/22 03:00:41;;;;;;;19.60;9.00;;;;;;;17.03;100.00;100024.05;109427;1252;59276;-65
2023/06/22 03:03:29;;;;;;;14.70;8.90;;;;;;;17.09;100.00;100021.04;109265;1253;59479;-64
2023/06/22 03:06:15;;;;;;;17.80;9.50;;;;;;;17.17;100.00;100017.48;109240;1253;72960;-64
2023/06/22 03:09:04;;;;;;;17.10;9.00;;;;;;;17.26;100.00;100016.98;109272;1253;66448;-64
2023/06/22 03:11:51;;;;;;;15.00;7.90;;;;;;;17.32;100.00;100016.78;109235;1253;71869;-64
2023/06/22 03:14:39;;;;;;;16.40;8.60;;;;;;;17.37;100.00;100017.05;109306;1256;59527;-65
2023/06/22 03:17:25;;;;;;;16.10;7.90;;;;;;;17.43;100.00;100026.95;109305;1253;58943;-63
2023/06/22 03:20:12;;;;;;;18.20;8.80;;;;;;;17.47;99.88;100032.84;109228;1257;70801;-64
2023/06/22 03:22:58;;;;;;;17.00;7.40;;;;;;;17.52;99.65;100032.82;109445;1253;68214;-65
2023/06/22 03:25:44;;;;;;;15.50;7.80;;;;;;;17.57;99.17;100027.08;109295;1253;72748;-64
2023/06/22 03:28:34;;;;;;;16.40;8.20;;;;;;;17.61;98.63;100030.20;109272;1254;58546;-65
2023/06/22 03:31:21;;;;;;;15.30;7.90;;;;;;;17.65;98.14;100032.27;109183;1254;60341;-63
2023/06/22 03:34:09;;;;;;;14.10;7.70;;;;;;;17.69;97.68;100038.30;109251;1253;70976;-64
2023/06/22 03:36:55;;;;;;;13.10;7.40;;;;;;;17.75;97.53;100042.88;109313;1253;66919;-64
2023/06/22 03:39:42;;;;;;;15.80;7.10;;;;;;;17.84;97.15;100049.66;109230;1253;71453;-66
2023/06/22 03:42:29;;;;;;;17.70;7.40;;;;;;;17.96;96.53;100054.26;109370;1253;59424;-65
2023/06/22 03:45:15;;;;;;;14.50;7.50;;;;;;;18.07;95.76;100055.47;109257;1253;58848;-63
2023/06/22 03:48:02;;;;;;;13.50;8.00;;;;;;;18.15;94.89;100063.92;109243;1254;72453;-64
2023/06/22 03:50:48;;;;;;;13.90;7.70;;;;;;;18.24;94.35;100069.95;109301;1253;66413;-64
2023/06/22 03:53:34;;;;;;;14.10;6.90;;;;;;;18.32;93.79;100076.00;109265;1253;71558;-64
2023/06/22 03:56:21;;;;;;;14.30;7.50;;;;;;;18.39;93.00;100077.11;109292;1253;58481;-64
2023/06/22 03:59:07;;;;;;;15.80;7.60;;;;;;;18.43;92.66;100079.91;109255;1253;58728;-64
2023/06/22 04:01:54;;;;;;;14.20;7.40;;;;;;;18.47;92.17;100086.60;109284;1253;71532;-64
2023/06/22 04:04:41;;;;;;;12.90;6.10;;;;;;;18.51;91.65;100089.25;109211;1253;67685;-64
2023/06/22 04:07:27;;;;;;;16.70;8.00;;;;;;;18.53;91.21;100087.37;109236;1253;72422;-64
2023/06/22 04:10:13;;;;;;;12.50;7.00;;;;;;;18.63;90.47;100093.31;109384;1253;58131;-65
2023/06/22 04:13:04;;;;;;;12.80;7.50;;;;;;;18.68;89.70;100088.38;109403;1253;60153;-66
2023/06/22 04:15:50;;;;;;;14.10;7.50;;;;;;;18.71;89.35;100093.13;109366;1253;72610;-65
2023/06/22 04:18:36;;;;;;;12.50;7.10;;;;;;;18.74;88.69;100090.42;109299;1253;66549;-63
2023/06/22 04:21:23;;;;;;;14.00;7.10;;;;;;;18.82;88.05;100089.69;109262;1253;71441;-65
2023/06/22 04:24:09;;;;;;;15.30;7.80;;;;;;;18.83;87.25;100093.44;109533;1253;59501;-65
2023/06/22 04:26:56;;;;;;;12.00;6.20;;;;;;;18.77;87.35;100087.21;109377;1253;61387;-64
2023/06/22 04:29:48;;;;;;;13.70;6.60;;;;;;;18.75;87.11;100089.13;109430;1253;72326;-64
2023/06/22 04:32:39;;;;;;;11.50;6.00;;;;;;;18.76;86.95;100089.15;109579;1253;66488;-64
2023/06/22 04:35:28;;;;;;;12.50;6.60;;;;;;;18.75;86.75;100095.34;109152;1253;71322;-66
2023/06/22 04:38:14;;;;;;;16.10;7.60;;;;;;;18.73;86.59;100093.76;109376;1253;58732;-66
2023/06/22 04:41:03;;;;;;;13.20;6.90;;;;;;;18.68;86.58;100091.32;109245;1253;59201;-67
2023/06/22 04:43:53;;;;;;;12.40;6.30;;;;;;;18.63;86.73;100093.95;109476;1253;72143;-66
2023/06/22 04:46:40;;;;;;;14.10;6.80;;;;;;;18.62;86.66;100092.89;109187;1253;67811;-65
2023/06/22 04:49:37;;;;;;;12.00;6.10;;;;;;;18.59;86.72;100091.56;109153;1254;71549;-65
2023/06/22 04:52:24;;;;;;;11.40;5.70;;;;;;;18.64;86.92;100099.50;109302;1256;56915;-66
2023/06/22 04:55:11;;;;;;;13.80;5.90;;;;;;;18.68;86.30;100098.83;109311;1254;61347;-64
2023/06/22 04:58:04;;;;;;;15.30;5.90;;;;;;;18.66;85.66;100100.86;109191;1254;72709;-65
2023/06/22 05:00:51;;;;;;;13.20;6.00;;;;;;;18.68;85.39;100097.17;109249;1254;66507;-66
2023/06/22 05:03:41;;;;;;;12.80;5.60;;;;;;;18.79;85.20;100096.21;109377;1254;72655;-67
2023/06/22 05:06:28;;;;;;;12.80;5.50;;;;;;;18.94;84.29;100093.77;109225;1254;58638;-66
2023/06/22 05:09:14;;;;;;;11.40;5.40;;;;;;;19.20;83.11;100090.92;109215;1254;60056;-67
2023/06/22 05:12:02;;;;;;;11.40;5.00;;;;;;;19.38;81.62;100084.49;109413;1254;72187;-65
2023/06/22 05:14:49;;;;;;;10.40;5.10;;;;;;;19.62;80.55;100082.48;109248;1254;67954;-62
2023/06/22 05:17:36;;;;;;;9.30;5.00;;;;;;;20.08;78.55;100083.36;109139;1254;71459;-66
2023/06/22 05:20:22;;;;;;;10.10;4.40;;;;;;;20.70;74.69;100087.91;109095;1254;59349;-64
2023/06/22 05:23:09;;;;;;;13.80;4.30;;;;;;;21.16;72.06;100087.63;109162;1254;59032;-65
2023/06/22 05:25:57;;;;;;;10.00;4.00;;;;;;;21.61;69.77;100080.40;109155;1254;70786;-67
2023/06/22 05:28:45;;;;;;;8.20;3.10;;;;;;;22.22;66.85;100080.09;109429;1254;66496;-65
2023/06/22 05:31:32;;;;;;;10.30;3.70;;;;;;;22.35;64.68;100087.14;109181;1254;71643;-66
2023/06/22 05:34:18;;;;;;;11.60;3.70;;;;;;;22.34;63.54;100091.90;109171;1256;56882;-65
2023/06/22 05:37:06;;;;;;;9.70;3.20;;;;;;;22.22;63.84;100092.29;109386;1254;59431;-66
2023/06/22 05:39:54;;;;;;;9.10;3.80;;;;;;;22.08;63.95;100088.89;109234;1254;69945;-66
2023/06/22 05:42:40;;;;;;;9.90;3.60;;;;;;;22.05;63.60;100092.82;109186;1254;66683;-66
2023/06/22 05:45:26;;;;;;;7.60;3.40;;;;;;;22.16;62.82;100092.48;109291;1254;72221;-64
2023/06/22 05:48:12;;;;;;;8.50;3.30;;;;;;;22.17;63.11;100095.27;109194;1254;56942;-64
2023/06/22 05:50:59;;;;;;;9.30;3.40;;;;;;;22.40;62.95;100096.56;109272;1254;59019;-66
2023/06/22 05:53:49;;;;;;;8.70;3.30;;;;;;;23.11;61.10;100099.77;109145;1254;69926;-64
2023/06/22 05:56:36;;;;;;;7.80;3.20;;;;;;;23.56;58.41;100100.19;109229;1254;66377;-67
2023/06/22 05:59:22;;;;;;;12.20;3.70;;;;;;;23.39;57.64;100107.73;109188;1253;72607;-66
2023/06/22 06:02:08;;;;;;;10.10;3.40;;;;;;;22.99;58.62;100119.38;109473;1253;57743;-64
2023/06/22 06:04:55;;;;;;;7.80;2.50;;;;;;;22.57;59.40;100118.16;109237;1253;59094;-66
2023/06/22 06:07:43;;;;;;;7.60;2.80;;;;;;;22.50;59.83;100105.41;109510;1253;72226;-65
2023/06/22 06:10:29;;;;;;;8.90;2.80;;;;;;;22.59;58.61;100106.23;109444;1253;66493;-67
2023/06/22 06:13:19;;;;;;;9.20;2.80;;;;;;;22.96;57.62;100115.30;109138;1253;72738;-70
2023/06/22 06:16:07;;;;;;;10.30;2.80;;;;;;;23.60;56.24;100117.96;109035;1253;56859;-72
2023/06/22 06:18:55;;;;;;;9.90;4.40;;;;;;;24.31;53.53;100108.98;109246;1253;60041;-70
2023/06/22 06:21:42;;;;;;;9.30;2.60;;;;;;;24.77;50.09;100115.24;109205;1257;72062;-65
2023/06/22 06:24:29;;;;;;;7.00;2.00;;;;;;;24.77;49.35;100115.22;109249;1253;66581;-64
2023/06/22 06:27:20;;;;;;;8.60;2.30;;;;;;;25.08;48.37;100113.70;109259;1253;72267;-67
2023/06/22 06:30:07;;;;;;;7.80;2.20;;;;;;;25.24;47.31;100117.48;109292;1253;57233;-65
2023/06/22 06:32:54;;;;;;;8.40;2.00;;;;;;;25.55;46.76;100117.65;109231;1253;59357;-68
2023/06/22 06:35:41;;;;;;;6.10;2.10;;;;;;;26.19;45.13;100108.23;109418;1253;72739;-73
2023/06/22 06:38:27;;;;;;;8.00;2.20;;;;;;;26.72;43.89;100105.05;109253;1253;67793;-67
2023/06/22 06:41:19;;;;;;;8.20;2.40;;;;;;;27.09;42.77;100110.49;109261;1253;71338;-65
2023/06/22 06:44:05;;;;;;;7.50;1.90;;;;;;;27.26;41.41;100112.57;109351;1256;56983;-63
2023/06/22 06:46:54;;;;;;;8.50;2.20;;;;;;;27.49;40.69;100111.52;109418;1253;59005;-66
2023/06/22 06:49:40;;;;;;;6.20;1.80;;;;;;;27.81;40.24;100115.50;109240;1253;70754;-65
2023/06/22 06:52:26;;;;;;;7.50;1.90;;;;;;;28.15;39.71;100121.82;109270;1253;67636;-65
2023/06/22 06:55:13;;;;;;;6.30;1.80;;;;;;;28.05;38.99;100120.10;109487;1253;71472;-64
2023/06/22 06:58:02;;;;;;;7.60;2.10;;;;;;;27.84;39.41;100129.02;109368;1253;56939;-66
2023/06/22 07:00:49;;;;;;;7.50;2.00;;;;;;;28.31;38.55;100129.30;109436;1253;60221;-64
2023/06/22 07:03:35;;;;;;;6.80;1.70;;;;;;;28.49;37.79;100137.98;109239;1253;73154;-67
2023/06/22 07:06:21;;;;;;;6.60;2.10;;;;;;;28.93;37.21;100140.80;109396;1253;68249;-64
2023/06/22 07:09:08;;;;;;;6.80;2.00;;;;;;;29.46;36.20;100137.91;109231;1253;72464;-63
2023/06/22 07:11:55;;;;;;;8.20;1.90;;;;;;;29.74;35.28;100144.25;109320;1256;58328;-65
2023/06/22 07:14:42;;;;;;;8.70;1.90;;;;;;;30.29;34.40;100137.89;109507;1253;58854;-70
2023/06/22 07:17:28;;;;;;;7.70;1.90;;;;;;;30.74;33.96;100123.69;109292;1253;72078;-68
2023/06/22 07:20:14;;;;;;;6.90;1.70;;;;;;;31.38;33.19;100127.55;109447;1253;66453;-71
2023/06/22 07:23:01;;;;;;;7.10;1.90;;;;;;;31.89;31.66;100129.31;109347;1253;72773;-70
2023/06/22 07:25:49;;;;;;;7.40;1.90;;;;;;;32.16;31.31;100127.92;109376;1253;56915;-71
2023/06/22 07:28:37;;;;;;;6.50;1.90;;;;;;;32.16;31.17;100123.64;109189;1254;60204;-75
2023/06/22 07:31:27;;;;;;;6.30;1.90;;;;;;;32.37;30.99;100126.69;109192;1253;72135;-72
2023/06/22 07:34:13;;;;;;;7.00;2.00;;;;;;;32.66;30.50;100132.54;109376;1253;68102;-73
2023/06/22 07:37:01;;;;;;;7.50;2.10;;;;;;;33.10;30.24;100141.36;109331;1253;71709;-71
2023/06/22 07:39:50;;;;;;;7.50;1.80;;;;;;;33.12;30.30;100142.65;109331;1254;57931;-71
2023/06/22 07:42:36;;;;;;;7.30;1.60;;;;;;;33.20;29.58;100140.92;109187;1253;60743;-69
2023/06/22 07:45:23;;;;;;;7.10;1.90;;;;;;;32.93;29.86;100141.87;109194;1253;72172;-70
2023/06/22 07:48:10;;;;;;;6.50;1.80;;;;;;;32.05;30.09;100139.38;109434;1253;68638;-71
2023/06/22 07:50:56;;;;;;;7.40;2.00;;;;;;;31.65;30.75;100138.02;109255;1253;72530;-69
2023/06/22 07:53:44;;;;;;;7.00;2.20;;;;;;;31.69;30.73;100145.87;109242;1254;57025;-71
2023/06/22 07:56:30;;;;;;;6.30;1.90;;;;;;;31.58;30.97;100143.69;109219;1253;60770;-75
2023/06/22 07:59:17;;;;;;;7.50;1.80;;;;;;;31.73;30.82;100138.11;109288;1253;72360;-71
2023/06/22 08:02:05;;;;;;;6.20;1.80;;;;;;;31.62;30.24;100147.67;109365;1253;68117;-73
2023/06/22 08:04:52;;;;;;;6.50;1.80;;;;;;;31.63;30.33;100152.85;109318;1253;71146;-73
2023/06/22 08:07:56;;;;;;;7.00;1.90;;;;;;;31.47;30.60;100154.02;109535;1253;56788;-71
2023/06/22 08:10:43;;;;;;;9.30;1.80;;;;;;;31.73;30.55;100152.52;109406;1253;60222;-70
2023/06/22 08:13:29;;;;;;;7.70;2.00;;;;;;;31.60;30.89;100156.11;109263;1253;70791;-73
2023/06/22 08:16:17;;;;;;;7.30;2.30;;;;;;;31.85;31.48;100157.66;109276;1253;67837;-71
2023/06/22 08:19:04;;;;;;;7.00;1.80;;;;;;;31.92;30.57;100159.66;109361;1253;72528;-72
2023/06/22 08:21:50;;;;;;;7.10;2.00;;;;;;;31.78;30.84;100163.02;109297;1253;56784;-66
2023/06/22 08:24:37;;;;;;;6.50;2.00;;;;;;;32.04;30.47;100151.37;109202;1256;60099;-67
2023/06/22 08:27:23;;;;;;;6.40;2.00;;;;;;;31.75;30.33;100146.33;108805;1256;184368;-66
2023/06/22 08:30:10;;;;;;;6.80;2.10;;;;;;;31.46;30.72;100146.84;109214;1256;68906;-67
2023/06/22 08:32:57;;;;;;;6.30;2.10;;;;;;;31.32;31.24;100148.81;109114;1256;73114;-69
2023/06/22 08:35:44;;;;;;;8.30;2.20;;;;;;;30.99;31.84;100147.64;109212;1256;57897;-66
2023/06/22 08:38:30;;;;;;;8.30;2.70;;;;;;;30.85;32.28;100143.02;109127;1256;58846;-68
2023/06/22 08:41:17;;;;;;;8.10;3.10;;;;;;;31.22;31.56;100140.71;109097;1256;70867;-66
2023/06/22 08:44:04;;;;;;;8.50;2.60;;;;;;;31.99;30.69;100142.90;109167;1256;66546;-69
2023/06/22 08:46:50;;;;;;;7.90;2.80;;;;;;;32.61;29.23;100147.98;108991;1256;71985;-70
2023/06/22 08:49:38;;;;;;;6.80;2.30;;;;;;;33.13;28.58;100148.33;109197;1256;56954;-72
2023/06/22 08:52:25;;;;;;;6.30;1.70;;;;;;;33.54;27.19;100147.75;109108;1256;60179;-68
2023/06/22 08:55:12;;;;;;;7.30;2.10;;;;;;;33.56;27.66;100144.51;109201;1253;70544;-69
2023/06/22 08:57:58;;;;;;;8.10;1.80;;;;;;;34.05;27.18;100148.52;109546;1253;67696;-70
2023/06/22 09:00:44;;;;;;;6.90;1.90;;;;;;;34.14;26.55;100154.93;109325;1253;71184;-69
2023/06/22 09:03:32;;;;;;;6.40;1.70;;;;;;;34.33;26.84;100148.05;109252;1253;56846;-69
2023/06/22 09:06:19;;;;;;;7.00;2.00;;;;;;;34.19;26.91;100148.48;109377;1253;60498;-70
2023/06/22 09:09:06;;;;;;;6.90;2.10;;;;;;;33.63;27.28;100155.95;109317;1253;73581;-70
2023/06/22 09:11:53;;;;;;;6.70;1.90;;;;;;;33.59;27.20;100147.83;109329;1253;67600;-70
2023/06/22 09:14:39;;;;;;;6.70;1.70;;;;;;;33.27;26.98;100142.40;109351;1253;72546;-68
2023/06/22 09:17:27;;;;;;;7.60;1.80;;;;;;;33.32;27.09;100140.98;109393;1253;57381;-66
2023/06/22 09:20:14;;;;;;;7.10;2.00;;;;;;;33.47;26.89;100143.27;109357;1253;60027;-69
2023/06/22 09:23:01;;;;;;;6.60;1.70;;;;;;;33.46;27.22;100146.40;109322;1254;72462;-67
2023/06/22 09:25:47;;;;;;;6.90;1.90;;;;;;;33.28;27.28;100141.96;109394;1256;66403;-67
2023/06/22 09:28:34;;;;;;;7.50;1.50;;;;;;;33.41;27.16;100140.10;109504;1253;72519;-68
2023/06/22 09:31:26;;;;;;;9.70;2.00;;;;;;;33.80;26.72;100146.25;109500;1253;57163;-67
2023/06/22 09:34:13;;;;;;;6.80;1.70;;;;;;;34.08;26.34;100147.63;109285;1253;60250;-67
2023/06/22 09:37:00;;;;;;;11.50;6.30;;;;;;;34.42;26.34;100142.75;109547;1253;71249;-69
2023/06/22 09:39:47;;;;;;;7.00;2.20;;;;;;;35.01;26.22;100137.27;109401;1253;66627;-67
2023/06/22 09:42:34;;;;;;;7.80;1.90;;;;;;;35.32;25.54;100129.99;109368;1253;73566;-66
2023/06/22 09:45:21;;;;;;;6.50;1.80;;;;;;;34.93;24.67;100137.08;109328;1253;57736;-68
2023/06/22 09:48:09;;;;;;;7.40;1.60;;;;;;;34.27;25.18;100133.36;109327;1253;58986;-66
2023/06/22 09:50:56;;;;;;;6.00;1.80;;;;;;;34.17;25.54;100127.23;109253;1253;70842;-68
2023/06/22 09:53:44;;;;;;;5.90;1.50;;;;;;;34.42;25.19;100134.15;109165;1253;66862;-68
2023/06/22 09:56:31;;;;;;;6.10;1.90;;;;;;;34.30;25.36;100131.15;109228;1253;73431;-66
2023/06/22 09:59:17;;;;;;;5.90;1.60;;;;;;;34.60;25.62;100128.94;109549;1253;57737;-68
2023/06/22 10:02:07;;;;;;;6.70;1.90;;;;;;;34.85;25.04;100124.21;109334;1253;60468;-69
2023/06/22 10:04:53;;;;;;;7.50;1.80;;;;;;;35.01;24.69;100134.58;109364;1253;70748;-70
2023/06/22 10:07:43;;;;;;;6.90;1.80;;;;;;;35.32;24.49;100130.27;109543;1253;68633;-73
2023/06/22 10:10:29;;;;;;;6.40;1.50;;;;;;;35.71;24.11;100133.91;109224;1253;71128;-72
2023/06/22 10:13:16;;;;;;;6.90;1.60;;;;;;;35.45;23.16;100138.69;109514;1253;56872;-71
2023/06/22 10:16:02;;;;;;;6.40;1.80;;;;;;;35.15;23.10;100140.00;109121;1254;58747;-74
2023/06/22 10:18:49;;;;;;;5.90;1.70;;;;;;;34.41;23.70;100147.92;109146;1254;72657;-72
2023/06/22 10:21:36;;;;;;;5.70;1.70;;;;;;;34.37;24.04;100144.36;109399;1254;66523;-75
2023/06/22 10:24:22;;;;;;;7.90;1.70;;;;;;;34.59;23.98;100150.43;109289;1256;72603;-76
2023/06/22 10:27:09;;;;;;;7.20;1.70;;;;;;;35.03;23.43;100140.65;109150;1253;56978;-74
2023/06/22 10:29:55;;;;;;;5.70;1.50;;;;;;;35.39;23.40;100135.11;109282;1253;58460;-77
2023/06/22 10:32:43;;;;;;;5.70;1.50;;;;;;;35.06;23.29;100136.45;109159;1254;71512;-77
2023/06/22 10:35:30;;;;;;;6.90;1.70;;;;;;;35.00;23.08;100144.59;109343;1254;66405;-76
2023/06/22 10:38:17;;;;;;;6.20;1.50;;;;;;;35.15;23.01;100145.88;109255;1253;71365;-74
2023/06/22 10:41:05;;;;;;;6.60;1.70;;;;;;;35.28;23.15;100140.23;109259;1253;57729;-74
2023/06/22 10:43:51;;;;;;;6.20;1.60;;;;;;;35.65;22.76;100139.97;109269;1253;60240;-75
2023/06/22 10:46:38;;;;;;;5.80;1.50;;;;;;;35.55;22.11;100135.92;109320;1253;70743;-74
2023/06/22 10:49:24;;;;;;;6.90;1.70;;;;;;;34.82;23.53;100137.48;109332;1253;67712;-77
2023/06/22 10:52:11;;;;;;;6.40;1.70;;;;;;;35.25;23.36;100135.89;109544;1253;71417;-75
2023/06/22 10:54:57;;;;;;;6.80;1.90;;;;;;;35.97;22.62;100136.47;109327;1254;56992;-75
2023/06/22 10:57:46;;;;;;;6.00;1.50;;;;;;;36.35;22.51;100138.54;109197;1257;58941;-74
2023/06/22 11:00:33;;;;;;;6.50;1.80;;;;;;;36.33;21.85;100135.18;109428;1253;70885;-74
2023/06/22 11:03:19;;;;;;;6.00;1.50;;;;;;;36.37;21.76;100133.27;109370;1253;66267;-75
2023/06/22 11:06:06;;;;;;;6.20;1.70;;;;;;;36.30;21.16;100134.70;109502;1253;72039;-72
2023/06/22 11:08:52;;;;;;;6.90;1.70;;;;;;;35.62;22.11;100136.17;109322;1253;56935;-74
2023/06/22 11:11:55;;;;;;;6.00;1.60;;;;;;;34.91;22.97;100126.19;109282;1253;58894;-78
2023/06/22 11:14:42;;;;;;;7.40;1.90;;;;;;;34.55;23.54;100124.52;109549;1253;72444;-74
2023/06/22 11:17:28;;;;;;;6.80;1.80;;;;;;;34.28;24.42;100126.35;109222;1253;67791;-77
2023/06/22 11:20:15;;;;;;;5.50;1.60;;;;;;;34.15;24.97;100119.33;109089;1254;72581;-76
2023/06/22 11:23:02;;;;;;;6.50;1.90;;;;;;;33.99;25.36;100115.89;109143;1253;58816;-73
2023/06/22 11:25:48;;;;;;;5.70;1.60;;;;;;;33.86;25.78;100109.80;109256;1253;60083;-72
2023/06/22 11:28:34;;;;;;;5.80;1.80;;;;;;;32.87;27.05;100112.45;109371;1253;70750;-72
2023/06/22 11:31:21;;;;;;;6.60;2.20;;;;;;;32.50;27.92;100116.27;109204;1254;66454;-72
2023/06/22 11:34:16;;;;;;;7.80;1.80;;;;;;;32.09;28.29;100114.38;109346;1253;72574;-73
2023/06/22 11:37:06;;;;;;;6.10;2.10;;;;;;;31.74;28.23;100111.40;109285;1253;57470;-72
2023/06/22 11:39:54;;;;;;;7.80;1.70;;;;;;;31.09;28.52;100127.50;109364;1253;60200;-71
2023/06/22 11:42:45;;;;;;;7.10;2.00;;;;;;;30.28;29.19;100131.41;109177;1256;72480;-73
2023/06/22 11:45:32;;;;;;;6.70;2.10;;;;;;;29.89;29.99;100127.91;109300;1254;67752;-72
2023/06/22 11:48:19;;;;;;;6.60;2.10;;;;;;;29.56;30.48;100122.27;109359;1253;72536;-72
2023/06/22 11:51:07;;;;;;;6.60;2.10;;;;;;;29.23;31.29;100121.64;109345;1253;57731;-71
2023/06/22 11:53:54;;;;;;;8.60;2.20;;;;;;;28.97;32.46;100118.11;109342;1259;61014;-72
2023/06/22 11:56:40;;;;;;;6.50;1.90;;;;;;;28.64;33.35;100113.56;109229;1253;71910;-73
2023/06/22 11:59:28;;;;;;;6.30;2.00;;;;;;;28.41;34.09;100115.73;109191;1253;67723;-72
2023/06/22 12:02:15;;;;;;;6.80;2.10;;;;;;;28.40;34.10;100105.42;109307;1255;72754;-72
2023/06/22 12:05:04;;;;;;;6.90;2.20;;;;;;;28.26;33.69;100108.60;109241;1253;58179;-71
2023/06/22 12:07:55;;;;;;;6.90;2.10;;;;;;;28.29;33.54;100108.55;109049;1257;60100;-74
2023/06/22 12:10:42;;;;;;;10.70;4.40;;;;;;;28.12;32.40;100106.59;108969;1257;72076;-73
2023/06/22 12:13:28;;;;;;;7.10;2.70;;;;;;;28.05;31.82;100111.28;109054;1257;66519;-73
2023/06/22 12:16:15;;;;;;;7.10;2.20;;;;;;;27.90;32.35;100104.40;108989;1257;72450;-73
2023/06/22 12:19:01;;;;;;;6.20;2.20;;;;;;;27.80;32.60;100102.06;108983;1259;58323;-73
2023/06/22 12:21:48;;;;;;;7.00;2.00;;;;;;;27.77;32.61;100096.30;108970;1259;60797;-74
2023/06/22 12:24:35;;;;;;;7.40;2.10;;;;;;;27.61;32.42;100101.45;108871;1259;72018;-73
2023/06/22 12:27:22;;;;;;;7.10;2.00;;;;;;;27.44;32.91;100098.42;108909;1262;67772;-74
2023/06/22 12:30:09;;;;;;;7.20;2.10;;;;;;;27.43;33.07;100099.25;109023;1260;70845;-74
2023/06/22 12:32:56;;;;;;;6.30;2.10;;;;;;;27.43;33.43;100092.70;109063;1259;56912;-72
2023/06/22 12:35:43;;;;;;;7.30;2.10;;;;;;;27.51;32.94;100097.52;108956;1259;60154;-72
2023/06/22 12:38:29;;;;;;;6.60;1.80;;;;;;;27.54;31.83;100089.71;109156;1255;72230;-73
2023/06/22 12:41:16;;;;;;;8.10;2.20;;;;;;;27.53;32.19;100092.27;109410;1254;67688;-73
2023/06/22 12:44:03;;;;;;;5.70;1.80;;;;;;;27.45;32.16;100098.92;109248;1254;72822;-73
2023/06/22 12:46:49;;;;;;;7.40;1.90;;;;;;;27.54;32.59;100098.20;109315;1254;57801;-73
2023/06/22 12:49:36;;;;;;;8.70;2.30;;;;;;;27.69;33.07;100096.75;109279;1254;59355;-70